createdAt,value
2019-03-31T00:00:20.585Z,47.10
2019-03-31T00:04:37.462Z,47.05
2019-03-31T00:08:52.975Z,48.15
2019-03-31T00:13:11.448Z,49.09
2019-03-31T00:17:59.498Z,46.93
2019-03-31T00:22:41.271Z,48.19
2019-03-31T00:27:40.434Z,48.47
2019-03-31T00:32:01.431Z,49.63
2019-03-31T00:36:10.557Z,49.49
2019-03-31T00:40:28.008Z,50.11
2019-03-31T00:44:37.191Z,50.55
2019-03-31T00:48:44.930Z,51.21
2019-03-31T00:52:53.574Z,53.81
2019-03-31T00:57:01.193Z,54.42
2019-03-31T01:01:36.975Z,54.21
2019-03-31T01:05:45.929Z,53.15
2019-03-31T01:09:58.825Z,53.12
2019-03-31T01:14:06.524Z,53.90
2019-03-31T01:18:14.371Z,54.83
2019-03-31T01:22:21.888Z,55.30
2019-03-31T01:26:29.521Z,55.38
2019-03-31T01:30:37.157Z,55.62
2019-03-31T01:34:44.740Z,56.21
2019-03-31T01:38:52.276Z,56.12
2019-03-31T01:42:59.821Z,57.03
2019-03-31T01:47:07.807Z,57.38
2019-03-31T01:51:15.334Z,58.18
2019-03-31T01:55:22.997Z,58.95
2019-03-31T01:59:30.671Z,59.00
2019-03-31T02:03:38.392Z,59.15
2019-03-31T02:07:45.955Z,59.81
2019-03-31T02:11:53.700Z,59.83
2019-03-31T02:16:03.287Z,60.12
2019-03-31T02:20:10.908Z,60.49
2019-03-31T02:24:18.447Z,60.41
2019-03-31T02:28:26.008Z,60.44
2019-03-31T02:32:33.556Z,60.73
2019-03-31T02:36:42.009Z,60.87
2019-03-31T02:40:49.598Z,61.27
2019-03-31T02:44:57.113Z,61.62
2019-03-31T02:49:04.811Z,61.35
2019-03-31T02:53:12.380Z,61.55
2019-03-31T02:57:22.884Z,61.70
2019-03-31T03:01:31.513Z,61.91
2019-03-31T03:05:43.097Z,61.55
2019-03-31T03:09:53.847Z,61.77
2019-03-31T03:14:05.217Z,61.50
2019-03-31T03:18:12.744Z,62.32
2019-03-31T03:22:21.264Z,61.98
2019-03-31T03:26:28.893Z,61.96
2019-03-31T03:30:36.525Z,61.84
2019-03-31T03:34:44.389Z,61.85
2019-03-31T03:38:51.941Z,62.22
2019-03-31T03:42:59.571Z,62.56
2019-03-31T03:47:07.126Z,62.53
2019-03-31T03:51:14.651Z,63.00
2019-03-31T03:55:22.255Z,63.28
2019-03-31T03:59:29.814Z,64.21
2019-03-31T04:03:37.587Z,64.86
2019-03-31T04:07:45.077Z,65.43
2019-03-31T04:11:52.618Z,65.43
2019-03-31T04:16:03.213Z,65.26
2019-03-31T04:20:11.965Z,65.68
2019-03-31T04:24:19.544Z,65.27
2019-03-31T04:28:27.045Z,64.95
2019-03-31T04:32:38.572Z,65.25
2019-03-31T04:36:43.914Z,64.74
2019-03-31T04:40:52.555Z,64.99
2019-03-31T04:45:00.175Z,65.35
2019-03-31T04:49:09.356Z,65.49
2019-03-31T04:53:16.912Z,65.56
2019-03-31T04:57:25.685Z,65.54
2019-03-31T05:01:33.254Z,65.94
2019-03-31T05:05:40.798Z,66.13
2019-03-31T05:09:48.514Z,65.83
2019-03-31T05:13:56.009Z,66.27
2019-03-31T05:18:03.434Z,66.50
2019-03-31T05:22:11.141Z,66.78
2019-03-31T05:26:18.750Z,66.62
2019-03-31T05:30:26.560Z,66.91
2019-03-31T05:34:34.297Z,66.46
2019-03-31T05:38:41.890Z,66.92
2019-03-31T05:42:50.435Z,66.70
2019-03-31T05:46:58.044Z,67.13
2019-03-31T05:51:05.604Z,67.37
2019-03-31T05:55:13.460Z,67.22
2019-03-31T05:59:20.966Z,66.89
2019-03-31T06:03:28.513Z,67.18
2019-03-31T06:07:36.136Z,67.10
2019-03-31T06:11:43.879Z,67.05
2019-03-31T06:15:51.382Z,66.76
2019-03-31T06:19:58.915Z,66.64
2019-03-31T06:24:06.467Z,66.41
2019-03-31T06:28:14.338Z,66.06
2019-03-31T06:32:21.986Z,65.67
2019-03-31T06:36:29.799Z,65.74
2019-03-31T06:40:37.371Z,65.81
2019-03-31T06:44:44.999Z,65.16
2019-03-31T06:48:52.517Z,65.47
2019-03-31T06:53:00.084Z,64.78
2019-03-31T06:57:07.583Z,64.75
2019-03-31T07:01:15.538Z,64.59
2019-03-31T07:05:23.234Z,64.28
2019-03-31T07:09:31.341Z,63.68
2019-03-31T07:13:39.689Z,62.96
2019-03-31T07:17:47.493Z,63.06
2019-03-31T07:21:57.017Z,62.49
2019-03-31T07:26:05.163Z,61.49
2019-03-31T07:30:15.070Z,61.16
2019-03-31T07:34:22.995Z,60.87
2019-03-31T07:38:38.674Z,60.07
2019-03-31T07:42:43.738Z,59.45
2019-03-31T07:46:53.532Z,58.89
2019-03-31T07:51:03.131Z,58.63
2019-03-31T07:55:14.249Z,57.98
2019-03-31T07:59:22.124Z,59.29
2019-03-31T08:03:30.067Z,57.18
2019-03-31T08:07:38.231Z,55.97
2019-03-31T08:11:46.843Z,55.18
2019-03-31T08:15:55.462Z,54.30
2019-03-31T08:20:03.480Z,53.02
2019-03-31T08:24:11.289Z,52.25
2019-03-31T08:28:20.106Z,50.99
2019-03-31T08:32:29.120Z,51.08
2019-03-31T08:36:39.598Z,50.38
2019-03-31T08:40:49.187Z,49.56
2019-03-31T08:44:57.343Z,48.74
2019-03-31T08:53:38.377Z,45.35
2019-03-31T08:57:50.585Z,43.88
2019-03-31T09:01:58.816Z,43.51
2019-03-31T09:06:07.114Z,41.76
2019-03-31T09:10:16.017Z,40.95
2019-03-31T09:14:24.943Z,40.50
2019-03-31T09:18:33.460Z,40.08
2019-03-31T09:22:43.964Z,39.67
2019-03-31T09:26:52.784Z,39.07
2019-03-31T09:31:08.044Z,38.99
2019-03-31T09:35:17.186Z,38.82
2019-03-31T09:39:27.270Z,39.63
2019-03-31T09:43:36.654Z,38.12
2019-03-31T09:47:44.533Z,38.30
2019-03-31T09:51:54.547Z,38.00
2019-03-31T09:56:03.238Z,37.64
2019-03-31T10:00:14.088Z,37.55
2019-03-31T10:04:23.250Z,37.70
2019-03-31T10:08:32.165Z,37.52
2019-03-31T10:12:40.304Z,37.86
2019-03-31T10:16:48.754Z,37.00
2019-03-31T10:20:56.821Z,36.25
2019-03-31T10:25:05.469Z,37.07
2019-03-31T10:29:13.492Z,37.60
2019-03-31T10:33:24.141Z,37.75
2019-03-31T10:37:41.667Z,37.92
2019-03-31T10:41:50.528Z,36.37
2019-03-31T10:46:17.023Z,36.19
2019-03-31T10:50:25.038Z,36.43
2019-03-31T10:55:26.668Z,36.65
2019-03-31T10:59:42.747Z,35.59
2019-03-31T11:03:51.868Z,35.13
2019-03-31T11:08:02.448Z,34.01
2019-03-31T11:12:14.111Z,33.94
2019-03-31T11:16:22.263Z,32.82
2019-03-31T11:20:30.974Z,32.66
2019-03-31T11:24:43.965Z,32.16
2019-03-31T11:28:51.915Z,31.86
2019-03-31T11:33:00.257Z,31.93
2019-03-31T11:37:13.842Z,30.64
2019-03-31T11:41:18.239Z,29.75
2019-03-31T11:45:26.804Z,30.00
2019-03-31T11:49:37.510Z,29.93
2019-03-31T11:58:32.153Z,30.71
2019-03-31T12:07:01.474Z,30.41
2019-03-31T12:11:11.265Z,29.72
2019-03-31T12:15:19.313Z,29.60
2019-03-31T12:19:27.360Z,30.09
2019-03-31T12:23:36.091Z,29.81
2019-03-31T12:27:43.851Z,30.02
2019-03-31T12:31:51.926Z,30.94
2019-03-31T12:35:59.865Z,30.75
2019-03-31T12:40:09.775Z,30.16
2019-03-31T12:44:18.838Z,30.16
2019-03-31T12:48:35.377Z,30.30
2019-03-31T12:52:51.134Z,29.57
2019-03-31T12:56:58.260Z,29.57
2019-03-31T13:01:06.587Z,29.26
2019-03-31T13:05:14.760Z,29.47
2019-03-31T13:09:23.638Z,30.26
2019-03-31T13:13:31.300Z,29.38
2019-03-31T13:17:38.882Z,29.57
2019-03-31T13:21:47.555Z,29.24
2019-03-31T13:25:55.537Z,28.16
2019-03-31T13:30:03.050Z,27.79
2019-03-31T13:34:10.681Z,28.51
2019-03-31T13:38:18.290Z,30.53
2019-03-31T13:42:25.864Z,29.07
2019-03-31T13:46:35.216Z,29.07
2019-03-31T13:50:42.769Z,30.92
2019-03-31T13:54:50.500Z,30.92
2019-03-31T13:58:58.205Z,29.33
2019-03-31T14:03:05.876Z,29.14
2019-03-31T14:07:13.418Z,28.04
2019-03-31T14:11:21.734Z,29.34
2019-03-31T14:15:29.650Z,29.30
2019-03-31T14:19:43.090Z,29.61
2019-03-31T14:23:57.019Z,29.61
2019-03-31T14:28:06.130Z,30.21
2019-03-31T14:32:13.682Z,36.35
2019-03-31T14:36:21.271Z,36.35
2019-03-31T14:40:28.957Z,38.78
2019-03-31T14:44:36.950Z,40.81
2019-03-31T14:48:44.829Z,40.31
2019-03-31T14:52:52.342Z,41.42
2019-03-31T14:56:59.957Z,42.68
2019-03-31T15:01:07.614Z,43.16
2019-03-31T15:05:15.341Z,44.66
2019-03-31T15:09:22.899Z,46.03
2019-03-31T15:13:30.727Z,46.61
2019-03-31T15:17:38.315Z,46.98
2019-03-31T15:21:45.985Z,47.75
2019-03-31T15:25:55.187Z,48.24
2019-03-31T15:30:03.091Z,49.31
2019-03-31T15:34:10.657Z,49.55
2019-03-31T15:38:18.651Z,49.60
2019-03-31T15:42:26.365Z,50.24
2019-03-31T15:46:34.038Z,50.05
2019-03-31T15:50:41.690Z,49.91
2019-03-31T15:54:49.402Z,50.18
2019-03-31T15:58:57.126Z,50.83
2019-03-31T16:03:04.896Z,51.27
2019-03-31T16:07:12.712Z,51.32
2019-03-31T16:11:19.823Z,51.61
2019-03-31T16:15:26.583Z,51.77
2019-03-31T16:19:33.274Z,51.60
2019-03-31T16:23:40.160Z,51.99
2019-03-31T16:27:46.822Z,52.07
2019-03-31T16:31:53.646Z,52.07
2019-03-31T16:36:00.352Z,51.94
2019-03-31T16:40:08.029Z,52.04
2019-03-31T16:44:14.830Z,52.26
2019-03-31T16:48:22.918Z,52.62
2019-03-31T16:52:29.666Z,52.83
2019-03-31T16:56:36.411Z,53.58
2019-03-31T17:00:43.607Z,53.07
2019-03-31T17:04:50.556Z,52.79
2019-03-31T17:08:57.255Z,52.73
2019-03-31T17:13:05.731Z,53.23
2019-03-31T17:17:13.108Z,53.37
2019-03-31T17:21:19.935Z,53.31
2019-03-31T17:25:26.863Z,53.59
2019-03-31T17:29:33.531Z,53.92
2019-03-31T17:33:40.386Z,53.93
2019-03-31T17:37:47.298Z,54.02
2019-03-31T17:41:54.348Z,54.19
2019-03-31T17:46:01.295Z,54.43
2019-03-31T17:50:09.107Z,54.74
2019-03-31T17:54:16.737Z,55.04
2019-03-31T17:58:23.640Z,55.06
2019-03-31T18:02:30.925Z,55.28
2019-03-31T18:06:39.703Z,55.34
2019-03-31T18:10:47.138Z,55.61
2019-03-31T18:14:53.957Z,55.85
2019-03-31T18:19:00.890Z,55.78
2019-03-31T18:23:07.928Z,55.81
2019-03-31T18:27:14.832Z,55.77
2019-03-31T18:31:24.323Z,55.91
2019-03-31T18:35:33.947Z,55.63
2019-03-31T18:39:41.148Z,55.97
2019-03-31T18:43:51.591Z,55.84
2019-03-31T18:47:56.572Z,55.97
2019-03-31T18:52:03.454Z,55.80
2019-03-31T18:56:20.001Z,55.91
2019-03-31T19:00:44.392Z,55.81
2019-03-31T19:05:15.748Z,55.89
2019-03-31T19:09:41.488Z,56.08
2019-03-31T19:14:07.391Z,56.30
2019-03-31T19:18:37.684Z,56.53
2019-03-31T19:23:15.518Z,56.67
2019-03-31T19:27:39.732Z,56.84
2019-03-31T19:32:06.301Z,56.91
2019-03-31T19:36:44.193Z,56.80
2019-03-31T19:41:08.820Z,57.04
2019-03-31T19:45:43.692Z,57.01
2019-03-31T19:50:15.710Z,56.88
2019-03-31T19:54:44.842Z,57.44
2019-03-31T19:59:29.323Z,57.37
2019-03-31T20:04:10.578Z,57.67
2019-03-31T20:08:45.440Z,57.87
2019-03-31T20:13:10.980Z,57.96
2019-03-31T20:17:26.686Z,58.19
2019-03-31T20:21:47.490Z,57.97
2019-03-31T20:26:12.002Z,58.30
2019-03-31T20:30:40.803Z,58.60
2019-03-31T20:35:10.024Z,58.81
2019-03-31T20:39:22.920Z,59.07
2019-03-31T20:43:48.578Z,59.19
2019-03-31T20:47:55.312Z,59.37
2019-03-31T20:52:02.317Z,59.56
2019-03-31T20:56:09.036Z,59.76
2019-03-31T21:00:16.216Z,59.84
2019-03-31T21:04:22.990Z,60.00
2019-03-31T21:08:29.797Z,60.21
2019-03-31T21:12:36.676Z,60.50
2019-03-31T21:16:43.414Z,60.61
2019-03-31T21:20:50.125Z,60.89
2019-03-31T21:24:56.835Z,61.04
2019-03-31T21:29:03.458Z,61.72
2019-03-31T21:33:10.203Z,61.78
2019-03-31T21:37:16.901Z,61.86
2019-03-31T21:41:24.866Z,61.89
2019-03-31T21:45:31.556Z,61.75
2019-03-31T21:49:38.266Z,61.95
2019-03-31T21:53:44.952Z,61.99
2019-03-31T21:57:51.639Z,62.03
2019-03-31T22:01:58.374Z,62.56
2019-03-31T22:06:05.096Z,62.26
2019-03-31T22:10:11.957Z,62.39
2019-03-31T22:14:18.677Z,62.63
2019-03-31T22:18:25.570Z,62.86
2019-03-31T22:22:32.419Z,62.68
2019-03-31T22:26:39.160Z,62.63
2019-03-31T22:30:45.849Z,62.80
2019-03-31T22:34:52.608Z,63.03
2019-03-31T22:38:59.346Z,62.94
2019-03-31T22:43:07.838Z,62.93
2019-03-31T22:47:14.553Z,63.31
2019-03-31T22:51:21.295Z,63.34
2019-03-31T22:55:29.220Z,63.61
2019-03-31T22:59:35.829Z,63.44
2019-03-31T23:03:42.507Z,63.63
2019-03-31T23:07:49.245Z,63.79
2019-03-31T23:11:56.961Z,63.99
2019-03-31T23:16:03.645Z,64.27
2019-03-31T23:20:10.346Z,63.96
2019-03-31T23:24:17.018Z,64.22
2019-03-31T23:28:23.893Z,64.45
2019-03-31T23:32:30.593Z,64.54
2019-03-31T23:36:37.297Z,64.81
2019-03-31T23:40:44.067Z,64.59
2019-03-31T23:44:50.738Z,64.47
2019-03-31T23:48:57.413Z,64.89
2019-03-31T23:53:04.080Z,65.03
2019-03-31T23:57:10.817Z,65.29
